createdAt,value
2019-02-16T00:00:53.361Z,7.60
2019-02-16T00:02:55.202Z,7.50
2019-02-16T00:04:56.907Z,8.70
2019-02-16T00:06:58.793Z,13.73
2019-02-16T00:09:00.509Z,8.10
2019-02-16T00:11:02.327Z,8.60
2019-02-16T00:13:04.145Z,8.57
2019-02-16T00:15:06.191Z,8.63
2019-02-16T00:17:07.958Z,6.80
2019-02-16T00:19:09.669Z,9.43
2019-02-16T00:21:11.357Z,7.93
2019-02-16T00:23:13.188Z,7.27
2019-02-16T00:25:14.938Z,7.90
2019-02-16T00:27:16.640Z,7.47
2019-02-16T00:29:18.360Z,6.80
2019-02-16T00:31:20.189Z,10.88
2019-02-16T00:33:22.203Z,7.80
2019-02-16T00:35:23.916Z,6.80
2019-02-16T00:37:25.910Z,7.83
2019-02-16T00:39:27.613Z,7.97
2019-02-16T00:41:29.329Z,6.60
2019-02-16T00:43:31.058Z,6.90
2019-02-16T00:45:32.877Z,9.10
2019-02-16T00:47:34.597Z,8.08
2019-02-16T00:49:36.329Z,10.50
2019-02-16T00:51:38.149Z,7.33
2019-02-16T00:53:40.015Z,9.13
2019-02-16T00:55:42.082Z,7.60
2019-02-16T00:57:43.801Z,7.20
2019-02-16T00:59:45.505Z,7.60
2019-02-16T01:01:47.257Z,9.10
2019-02-16T01:03:48.961Z,8.40
2019-02-16T01:05:50.785Z,8.40
2019-02-16T01:07:52.696Z,8.98
2019-02-16T01:09:54.401Z,9.07
2019-02-16T01:11:56.110Z,7.30
2019-02-16T01:13:57.832Z,10.78
2019-02-16T01:15:59.996Z,7.60
2019-02-16T01:18:01.744Z,10.57
2019-02-16T01:20:05.050Z,9.80
2019-02-16T01:22:07.043Z,10.15
2019-02-16T01:24:08.873Z,8.63
2019-02-16T01:26:10.599Z,12.23
2019-02-16T01:28:12.342Z,7.90
2019-02-16T01:30:14.244Z,7.60
2019-02-16T01:32:15.977Z,8.30
2019-02-16T01:34:17.702Z,12.80
2019-02-16T01:36:19.408Z,10.15
2019-02-16T01:38:21.149Z,8.90
2019-02-16T01:40:22.853Z,12.50
2019-02-16T01:42:24.568Z,8.83
2019-02-16T01:44:26.282Z,10.17
2019-02-16T01:46:28.005Z,9.17
2019-02-16T01:48:29.733Z,8.48
2019-02-16T01:50:31.461Z,7.77
2019-02-16T01:52:33.305Z,9.40
2019-02-16T01:54:35.301Z,9.20
2019-02-16T01:56:37.021Z,7.60
2019-02-16T01:58:38.735Z,8.10
2019-02-16T02:00:40.446Z,7.87
2019-02-16T02:02:42.296Z,10.65
2019-02-16T02:04:44.196Z,8.00
2019-02-16T02:06:45.910Z,8.23
2019-02-16T02:08:47.944Z,9.18
2019-02-16T02:10:49.677Z,9.20
2019-02-16T02:12:51.494Z,10.05
2019-02-16T02:14:53.334Z,8.85
2019-02-16T02:16:55.037Z,10.48
2019-02-16T02:18:56.861Z,7.62
2019-02-16T02:20:58.664Z,8.43
2019-02-16T02:23:00.382Z,8.23
2019-02-16T02:25:02.309Z,7.85
2019-02-16T02:27:04.138Z,9.90
2019-02-16T02:29:05.883Z,7.83
2019-02-16T02:31:07.650Z,9.80
2019-02-16T02:33:09.550Z,8.33
2019-02-16T02:35:11.363Z,8.90
2019-02-16T02:37:13.062Z,8.38
2019-02-16T02:39:14.794Z,6.67
2019-02-16T02:41:16.505Z,7.42
2019-02-16T02:43:18.232Z,7.67
2019-02-16T02:45:20.065Z,8.18
2019-02-16T02:47:21.778Z,7.42
2019-02-16T02:49:23.478Z,8.23
2019-02-16T02:51:25.348Z,7.20
2019-02-16T02:53:31.063Z,8.53
2019-02-16T02:55:30.908Z,8.90
2019-02-16T02:57:32.740Z,8.58
2019-02-16T02:59:34.440Z,8.30
2019-02-16T03:01:36.140Z,8.10
2019-02-16T03:03:38.037Z,9.00
2019-02-16T03:05:39.752Z,8.83
2019-02-16T03:07:41.453Z,8.13
2019-02-16T03:09:43.189Z,7.28
2019-02-16T03:11:44.900Z,8.75
2019-02-16T03:13:46.628Z,8.20
2019-02-16T03:15:48.325Z,7.50
2019-02-16T03:17:50.038Z,9.28
2019-02-16T03:19:51.846Z,7.47
2019-02-16T03:22:02.552Z,7.75
2019-02-16T03:23:57.306Z,8.75
2019-02-16T03:26:12.175Z,8.00
2019-02-16T03:28:33.493Z,13.55
2019-02-16T03:31:20.595Z,7.20
2019-02-16T03:33:59.754Z,7.92
2019-02-16T03:37:10.955Z,6.65
2019-02-16T03:39:21.680Z,8.60
2019-02-16T03:41:23.401Z,9.18
2019-02-16T03:43:25.102Z,7.55
2019-02-16T03:45:26.821Z,8.23
2019-02-16T03:47:28.554Z,9.20
2019-02-16T03:49:30.285Z,10.45
2019-02-16T03:51:32.033Z,8.20
2019-02-16T03:53:33.746Z,11.10
2019-02-16T03:55:35.493Z,9.28
2019-02-16T03:57:37.181Z,8.15
2019-02-16T03:59:38.887Z,8.38
2019-02-16T04:01:40.618Z,9.05
2019-02-16T04:03:42.333Z,8.10
2019-02-16T04:05:44.041Z,8.95
2019-02-16T04:07:45.864Z,7.65
2019-02-16T04:09:47.656Z,7.47
2019-02-16T04:11:49.357Z,6.50
2019-02-16T04:13:51.247Z,8.38
2019-02-16T04:15:52.946Z,6.83
2019-02-16T04:17:54.649Z,9.20
2019-02-16T04:19:56.372Z,8.85
2019-02-16T04:21:58.061Z,9.68
2019-02-16T04:23:59.876Z,9.38
2019-02-16T04:26:06.278Z,8.40
2019-02-16T04:28:07.989Z,8.75
2019-02-16T04:30:09.693Z,8.00
2019-02-16T04:32:11.441Z,7.62
2019-02-16T04:34:13.191Z,8.10
2019-02-16T04:36:14.925Z,10.43
2019-02-16T04:38:16.636Z,8.45
2019-02-16T04:40:18.345Z,8.93
2019-02-16T04:42:20.050Z,11.00
2019-02-16T04:44:21.781Z,7.70
2019-02-16T04:46:23.480Z,10.30
2019-02-16T04:48:25.187Z,9.13
2019-02-16T04:50:26.948Z,10.60
2019-02-16T04:52:34.684Z,8.35
2019-02-16T04:54:32.286Z,9.68
2019-02-16T04:56:34.104Z,8.78
2019-02-16T04:58:35.805Z,8.70
2019-02-16T05:00:37.493Z,8.80
2019-02-16T05:02:39.486Z,11.68
2019-02-16T05:04:41.188Z,11.00
2019-02-16T05:06:42.885Z,9.68
2019-02-16T05:08:44.607Z,8.50
2019-02-16T05:10:47.497Z,9.18
2019-02-16T05:12:49.205Z,10.30
2019-02-16T05:14:51.242Z,9.23
2019-02-16T05:16:52.938Z,8.15
2019-02-16T05:18:54.652Z,8.93
2019-02-16T05:20:56.390Z,8.35
2019-02-16T05:22:58.198Z,10.13
2019-02-16T05:24:59.919Z,10.70
2019-02-16T05:27:01.645Z,8.68
2019-02-16T05:29:03.357Z,7.35
2019-02-16T05:31:05.053Z,11.70
2019-02-16T05:33:07.037Z,8.25
2019-02-16T05:35:08.860Z,7.67
2019-02-16T05:37:10.569Z,8.95
2019-02-16T05:39:12.301Z,7.47
2019-02-16T05:41:14.012Z,8.93
2019-02-16T05:43:15.722Z,8.43
2019-02-16T05:45:17.417Z,9.90
2019-02-16T05:47:19.161Z,8.23
2019-02-16T05:49:21.032Z,11.05
2019-02-16T05:51:22.726Z,10.05
2019-02-16T05:53:24.442Z,8.78
2019-02-16T05:55:26.141Z,10.68
2019-02-16T05:57:27.869Z,6.72
2019-02-16T05:59:29.580Z,8.13
2019-02-16T06:01:31.393Z,11.38
2019-02-16T06:03:33.109Z,9.98
2019-02-16T06:05:34.827Z,7.87
2019-02-16T06:07:36.549Z,8.55
2019-02-16T06:09:38.321Z,8.15
2019-02-16T06:11:40.077Z,9.03
2019-02-16T06:13:41.817Z,9.28
2019-02-16T06:15:43.551Z,10.23
2019-02-16T06:17:45.341Z,8.48
2019-02-16T06:19:47.102Z,7.12
2019-02-16T06:21:48.817Z,9.38
2019-02-16T06:23:50.544Z,9.05
2019-02-16T06:25:52.249Z,8.70
2019-02-16T06:27:54.097Z,10.68
2019-02-16T06:29:55.812Z,8.15
2019-02-16T06:31:57.635Z,9.85
2019-02-16T06:33:59.369Z,8.90
2019-02-16T06:36:08.444Z,10.53
2019-02-16T06:38:10.141Z,7.97
2019-02-16T06:40:11.893Z,8.25
2019-02-16T06:42:13.593Z,10.25
2019-02-16T06:44:15.295Z,6.58
2019-02-16T06:46:17.157Z,8.80
2019-02-16T06:48:18.885Z,7.50
2019-02-16T06:50:20.584Z,7.50
2019-02-16T06:52:22.309Z,7.65
2019-02-16T06:54:24.014Z,7.50
2019-02-16T06:56:29.858Z,9.60
2019-02-16T06:58:31.575Z,7.45
2019-02-16T07:00:33.289Z,9.70
2019-02-16T07:02:34.996Z,12.68
2019-02-16T07:04:36.762Z,10.28
2019-02-16T07:06:38.518Z,8.75
2019-02-16T07:08:40.333Z,10.20
2019-02-16T07:10:42.054Z,6.75
2019-02-16T07:12:43.762Z,8.20
2019-02-16T07:14:45.852Z,9.30
2019-02-16T07:17:02.966Z,8.70
2019-02-16T07:19:11.769Z,9.33
2019-02-16T07:21:13.576Z,6.97
2019-02-16T07:23:22.228Z,8.90
2019-02-16T07:25:18.970Z,8.38
2019-02-16T07:27:20.810Z,8.08
2019-02-16T07:29:22.741Z,9.15
2019-02-16T07:31:24.710Z,8.60
2019-02-16T07:33:26.855Z,10.40
2019-02-16T07:35:28.686Z,7.70
2019-02-16T07:37:30.563Z,9.13
2019-02-16T07:39:32.269Z,7.03
2019-02-16T07:41:34.125Z,12.83
2019-02-16T07:43:58.171Z,11.20
2019-02-16T07:46:09.097Z,10.70
2019-02-16T07:48:18.166Z,9.83
2019-02-16T07:50:36.273Z,11.03
2019-02-16T07:52:57.669Z,10.03
2019-02-16T07:55:10.104Z,7.93
2019-02-16T07:57:30.239Z,7.80
2019-02-16T07:59:42.766Z,9.10
2019-02-16T08:01:57.874Z,12.43
2019-02-16T08:04:14.034Z,14.90
2019-02-16T08:06:36.876Z,10.77
2019-02-16T08:09:16.239Z,8.83
2019-02-16T08:11:30.140Z,8.50
2019-02-16T08:13:50.329Z,8.50
2019-02-16T08:16:12.066Z,11.50
2019-02-16T08:18:26.602Z,10.33
2019-02-16T08:20:39.942Z,9.77
2019-02-16T08:22:47.591Z,8.87
2019-02-16T08:25:08.824Z,8.90
2019-02-16T08:27:30.218Z,12.93
2019-02-16T08:29:48.921Z,8.37
2019-02-16T08:32:13.416Z,9.00
2019-02-16T08:34:24.458Z,11.53
2019-02-16T08:38:50.154Z,8.20
2019-02-16T08:41:14.425Z,10.77
2019-02-16T08:43:42.120Z,9.97
2019-02-16T08:46:01.385Z,12.03
2019-02-16T08:48:08.814Z,8.63
2019-02-16T08:50:21.273Z,10.20
2019-02-16T08:52:35.410Z,12.63
2019-02-16T08:54:46.877Z,11.63
2019-02-16T08:57:26.347Z,11.00
2019-02-16T08:59:41.677Z,10.30
2019-02-16T09:01:56.743Z,9.77
2019-02-16T09:04:16.547Z,11.53
2019-02-16T09:06:28.355Z,12.23
2019-02-16T09:08:58.285Z,12.07
2019-02-16T09:11:17.077Z,13.90
2019-02-16T09:13:29.628Z,11.10
2019-02-16T09:15:59.958Z,14.13
2019-02-16T09:18:10.252Z,11.97
2019-02-16T09:20:24.630Z,14.40
2019-02-16T09:22:52.122Z,11.77
2019-02-16T09:24:59.468Z,15.80
2019-02-16T09:27:19.250Z,17.30
2019-02-16T09:29:28.924Z,12.57
2019-02-16T09:31:49.046Z,14.13
2019-02-16T09:34:09.994Z,13.63
2019-02-16T09:36:34.256Z,15.50
2019-02-16T09:38:46.008Z,16.00
2019-02-16T09:40:59.263Z,15.30
2019-02-16T09:43:15.749Z,16.07
2019-02-16T09:45:32.983Z,16.43
2019-02-16T09:47:49.378Z,19.10
2019-02-16T09:50:04.497Z,19.10
2019-02-16T09:52:24.706Z,18.70
2019-02-16T09:54:42.854Z,17.43
2019-02-16T09:56:49.540Z,17.30
2019-02-16T09:59:01.014Z,15.33
2019-02-16T10:01:09.114Z,16.63
2019-02-16T10:03:17.766Z,14.70
2019-02-16T10:05:39.146Z,18.70
2019-02-16T10:07:59.186Z,17.57
2019-02-16T10:10:38.926Z,19.13
2019-02-16T10:13:02.473Z,21.73
2019-02-16T10:15:23.337Z,14.97
2019-02-16T10:17:43.281Z,15.70
2019-02-16T10:20:13.836Z,18.00
2019-02-16T10:22:33.688Z,19.10
2019-02-16T10:24:52.135Z,17.47
2019-02-16T10:27:35.860Z,17.57
2019-02-16T10:29:48.126Z,16.80
2019-02-16T10:32:21.772Z,18.30
2019-02-16T10:34:32.689Z,16.10
2019-02-16T10:36:53.865Z,17.43
2019-02-16T10:39:05.073Z,17.10
2019-02-16T10:41:22.465Z,18.27
2019-02-16T10:43:42.273Z,19.50
2019-02-16T10:45:53.317Z,15.70
2019-02-16T10:48:20.458Z,19.47
2019-02-16T10:50:39.792Z,17.27
2019-02-16T10:52:53.542Z,20.27
2019-02-16T10:55:16.913Z,19.07
2019-02-16T10:57:45.237Z,20.00
2019-02-16T11:00:12.763Z,20.07
2019-02-16T11:02:40.169Z,22.90
2019-02-16T11:05:02.074Z,19.20
2019-02-16T11:07:35.457Z,16.63
2019-02-16T11:09:53.779Z,20.57
2019-02-16T11:12:24.315Z,21.63
2019-02-16T11:14:57.710Z,19.30
2019-02-16T11:17:06.749Z,18.27
2019-02-16T11:19:28.206Z,22.50
2019-02-16T11:21:40.445Z,35.13
2019-02-16T11:24:01.860Z,20.47
2019-02-16T11:26:23.407Z,22.83
2019-02-16T11:28:53.777Z,19.57
2019-02-16T11:31:24.074Z,22.30
2019-02-16T11:33:44.535Z,22.80
2019-02-16T11:36:05.816Z,22.37
2019-02-16T11:38:28.801Z,18.60
2019-02-16T11:40:43.743Z,21.80
2019-02-16T11:43:03.220Z,19.17
2019-02-16T11:45:26.488Z,21.27
2019-02-16T11:47:50.477Z,18.10
2019-02-16T11:50:08.593Z,20.83
2019-02-16T11:52:24.493Z,17.77
2019-02-16T11:54:45.509Z,19.97
2019-02-16T11:56:54.010Z,21.40
2019-02-16T11:59:16.225Z,18.90
2019-02-16T12:01:36.651Z,18.43
2019-02-16T12:03:49.098Z,19.23
2019-02-16T12:06:13.499Z,21.17
2019-02-16T12:08:25.805Z,20.83
2019-02-16T12:10:50.090Z,21.23
2019-02-16T12:13:05.664Z,18.53
2019-02-16T12:15:29.962Z,21.60
2019-02-16T12:18:03.305Z,23.47
2019-02-16T12:20:17.632Z,18.40
2019-02-16T12:22:37.568Z,20.63
2019-02-16T12:25:04.805Z,22.20
2019-02-16T12:27:24.740Z,17.77
2019-02-16T12:29:39.572Z,23.70
2019-02-16T12:31:55.318Z,21.00
2019-02-16T12:34:15.566Z,22.53
2019-02-16T12:36:26.268Z,23.40
2019-02-16T12:38:39.594Z,21.40
2019-02-16T12:40:48.521Z,20.23
2019-02-16T12:42:59.412Z,23.00
2019-02-16T12:45:16.739Z,21.13
2019-02-16T12:47:25.844Z,22.67
2019-02-16T12:49:45.940Z,20.50
2019-02-16T12:52:10.183Z,20.90
2019-02-16T12:54:24.782Z,19.20
2019-02-16T12:56:43.515Z,20.10
2019-02-16T12:58:53.549Z,21.60
2019-02-16T13:01:04.761Z,18.70
2019-02-16T13:03:19.604Z,20.00
2019-02-16T13:05:53.425Z,21.00
2019-02-16T13:08:00.702Z,19.80
2019-02-16T13:10:23.431Z,23.70
2019-02-16T13:12:44.939Z,23.17
2019-02-16T13:15:12.421Z,19.63
2019-02-16T13:17:48.831Z,19.07
2019-02-16T13:20:09.353Z,24.07
2019-02-16T13:22:23.033Z,21.17
2019-02-16T13:24:36.629Z,17.73
2019-02-16T13:27:06.141Z,19.17
2019-02-16T13:29:39.712Z,21.37
2019-02-16T13:32:03.470Z,18.93
2019-02-16T13:34:37.040Z,19.20
2019-02-16T13:36:50.833Z,20.10
2019-02-16T13:39:04.926Z,18.80
2019-02-16T13:41:25.173Z,20.10
2019-02-16T13:43:48.209Z,18.23
2019-02-16T13:45:59.212Z,17.63
2019-02-16T13:48:09.041Z,17.30
2019-02-16T13:50:16.515Z,18.03
2019-02-16T13:52:30.976Z,16.90
2019-02-16T13:54:44.293Z,20.27
2019-02-16T13:57:24.076Z,21.10
2019-02-16T13:59:45.469Z,20.80
2019-02-16T14:02:09.869Z,19.30
2019-02-16T14:04:43.916Z,16.27
2019-02-16T14:07:01.883Z,22.10
2019-02-16T14:09:33.261Z,19.47
2019-02-16T14:11:49.976Z,18.07
2019-02-16T14:14:01.672Z,17.57
2019-02-16T14:16:07.915Z,17.13
2019-02-16T14:18:09.785Z,19.37
2019-02-16T14:20:11.725Z,23.73
2019-02-16T14:22:13.477Z,17.90
2019-02-16T14:24:17.150Z,23.17
2019-02-16T14:26:18.873Z,20.03
2019-02-16T14:28:20.774Z,16.83
2019-02-16T14:30:22.519Z,21.93
2019-02-16T14:32:24.370Z,17.10
2019-02-16T14:34:26.339Z,18.83
2019-02-16T14:36:28.102Z,18.93
2019-02-16T14:38:44.222Z,17.60
2019-02-16T14:40:45.921Z,15.43
2019-02-16T14:42:47.621Z,16.20
2019-02-16T14:44:49.489Z,17.00
2019-02-16T14:46:51.257Z,20.10
2019-02-16T14:48:52.957Z,19.47
2019-02-16T14:50:54.757Z,17.33
2019-02-16T14:52:56.594Z,16.40
2019-02-16T14:54:58.292Z,20.87
2019-02-16T14:56:59.997Z,20.37
2019-02-16T14:59:01.725Z,22.43
2019-02-16T15:01:03.538Z,18.80
2019-02-16T15:03:05.236Z,20.00
2019-02-16T15:05:07.518Z,17.80
2019-02-16T15:07:09.253Z,19.80
2019-02-16T15:09:10.978Z,18.23
2019-02-16T15:11:12.685Z,22.00
2019-02-16T15:13:14.593Z,18.83
2019-02-16T15:15:16.307Z,18.37
2019-02-16T15:17:18.005Z,21.97
2019-02-16T15:19:19.842Z,18.70
2019-02-16T15:21:21.657Z,16.60
2019-02-16T15:23:23.360Z,21.63
2019-02-16T15:25:25.084Z,19.00
2019-02-16T15:27:26.817Z,20.23
2019-02-16T15:29:28.754Z,16.90
2019-02-16T15:31:30.716Z,19.67
2019-02-16T15:33:32.565Z,19.50
2019-02-16T15:35:34.253Z,19.87
2019-02-16T15:37:36.047Z,20.00
2019-02-16T15:39:37.932Z,21.23
2019-02-16T15:41:39.659Z,21.67
2019-02-16T15:43:41.358Z,20.70
2019-02-16T15:45:43.186Z,22.30
2019-02-16T15:47:45.073Z,20.97
2019-02-16T15:49:46.790Z,23.47
2019-02-16T15:51:48.617Z,21.47
2019-02-16T15:53:50.319Z,22.47
2019-02-16T15:55:52.017Z,22.80
2019-02-16T15:57:53.835Z,23.33
2019-02-16T15:59:55.643Z,20.33
2019-02-16T16:01:57.385Z,22.13
2019-02-16T16:03:59.175Z,25.43
2019-02-16T16:06:00.869Z,21.93
2019-02-16T16:08:49.173Z,25.13
2019-02-16T16:11:52.327Z,22.60
2019-02-16T16:14:16.472Z,21.90
2019-02-16T16:16:34.630Z,24.27
2019-02-16T16:18:58.918Z,23.40
2019-02-16T16:21:19.179Z,25.70
2019-02-16T16:23:43.037Z,21.67
2019-02-16T16:26:00.810Z,23.23
2019-02-16T16:28:12.908Z,22.97
2019-02-16T16:30:37.456Z,25.00
2019-02-16T16:33:04.879Z,24.17
2019-02-16T16:35:19.677Z,27.53
2019-02-16T16:37:43.610Z,22.77
2019-02-16T16:40:03.618Z,25.83
2019-02-16T16:42:32.975Z,25.90
2019-02-16T16:44:49.213Z,23.70
2019-02-16T16:47:10.631Z,25.00
2019-02-16T16:49:37.924Z,20.50
2019-02-16T16:51:56.709Z,23.10
2019-02-16T16:54:06.773Z,24.03
2019-02-16T16:56:28.611Z,24.20
2019-02-16T16:58:55.789Z,24.77
2019-02-16T17:01:17.268Z,24.17
2019-02-16T17:03:28.261Z,24.03
2019-02-16T17:05:57.941Z,23.97
2019-02-16T17:08:16.293Z,25.07
2019-02-16T17:10:25.435Z,30.63
2019-02-16T17:12:39.080Z,26.47
2019-02-16T17:14:59.394Z,27.03
2019-02-16T17:17:08.181Z,33.43
2019-02-16T17:19:33.787Z,29.07
2019-02-16T17:21:50.577Z,28.40
2019-02-16T17:24:06.145Z,31.70
2019-02-16T17:26:37.651Z,29.10
2019-02-16T17:28:48.060Z,29.97
2019-02-16T17:30:56.782Z,27.47
2019-02-16T17:33:11.409Z,29.20
2019-02-16T17:35:32.957Z,28.57
2019-02-16T17:37:41.177Z,26.43
2019-02-16T17:40:01.217Z,25.93
2019-02-16T17:42:30.235Z,24.97
2019-02-16T17:44:42.737Z,28.67
2019-02-16T17:47:04.126Z,28.10
2019-02-16T17:49:20.849Z,26.30
2019-02-16T17:51:32.769Z,24.97
2019-02-16T17:54:08.447Z,27.10
2019-02-16T17:56:26.383Z,26.70
2019-02-16T17:58:33.420Z,30.40
2019-02-16T18:00:48.390Z,27.63
2019-02-16T18:03:03.569Z,27.67
2019-02-16T18:05:40.503Z,28.40
2019-02-16T18:08:02.083Z,25.33
2019-02-16T18:10:38.625Z,27.10
2019-02-16T18:12:49.037Z,24.80
2019-02-16T18:15:10.672Z,30.77
2019-02-16T18:17:29.361Z,26.77
2019-02-16T18:19:37.283Z,31.97
2019-02-16T18:22:01.320Z,31.27
2019-02-16T18:24:25.653Z,30.13
2019-02-16T18:26:35.537Z,34.07
2019-02-16T18:29:08.821Z,29.10
2019-02-16T18:31:30.205Z,30.40
2019-02-16T18:34:06.559Z,30.60
2019-02-16T18:36:27.021Z,27.60
2019-02-16T18:38:57.617Z,28.23
2019-02-16T18:41:14.022Z,26.23
2019-02-16T18:43:31.945Z,27.43
2019-02-16T18:46:11.949Z,35.13
2019-02-16T18:48:45.534Z,31.67
2019-02-16T18:51:12.959Z,34.70
2019-02-16T18:53:27.437Z,32.90
2019-02-16T18:55:48.905Z,29.10
2019-02-16T18:58:06.468Z,32.73
2019-02-16T19:00:29.225Z,37.17
2019-02-16T19:02:38.427Z,36.00
2019-02-16T19:05:02.646Z,35.83
2019-02-16T19:07:17.711Z,37.70
2019-02-16T19:09:51.201Z,35.30
2019-02-16T19:12:11.836Z,36.07
2019-02-16T19:14:39.101Z,38.57
2019-02-16T19:16:59.174Z,37.20
2019-02-16T19:19:10.809Z,37.73
2019-02-16T19:21:24.729Z,35.10
2019-02-16T19:23:42.276Z,35.83
2019-02-16T19:26:03.636Z,37.70
2019-02-16T19:28:15.276Z,40.67
2019-02-16T19:30:33.389Z,40.63
2019-02-16T19:33:01.005Z,35.60
2019-02-16T19:35:18.582Z,33.97
2019-02-16T19:37:30.269Z,41.60
2019-02-16T19:39:54.272Z,39.93
2019-02-16T19:42:01.821Z,38.70
2019-02-16T19:44:28.098Z,38.70
2019-02-16T19:46:49.622Z,38.00
2019-02-16T19:49:01.334Z,40.70
2019-02-16T19:51:12.111Z,53.83
2019-02-16T19:53:25.793Z,63.57
2019-02-16T19:55:38.911Z,67.43
2019-02-16T19:58:12.129Z,64.63
2019-02-16T20:00:28.059Z,55.67
2019-02-16T20:02:37.808Z,60.23
2019-02-16T20:04:58.022Z,50.80
2019-02-16T20:07:09.890Z,52.03
2019-02-16T20:09:35.897Z,50.97
2019-02-16T20:11:59.985Z,45.40
2019-02-16T20:14:15.434Z,45.07
2019-02-16T20:16:23.124Z,42.80
2019-02-16T20:18:46.636Z,46.90
2019-02-16T20:21:06.664Z,37.40
2019-02-16T20:23:26.720Z,39.07
2019-02-16T20:25:37.761Z,39.03
2019-02-16T20:27:58.541Z,38.90
2019-02-16T20:30:22.501Z,35.50
2019-02-16T20:32:50.076Z,37.53
2019-02-16T20:35:10.196Z,33.53
2019-02-16T20:37:31.364Z,33.77
2019-02-16T20:39:52.788Z,32.10
2019-02-16T20:42:03.108Z,32.97
2019-02-16T20:44:39.649Z,39.67
2019-02-16T20:46:51.786Z,37.40
2019-02-16T20:49:07.237Z,34.57
2019-02-16T20:51:22.498Z,38.23
2019-02-16T20:53:34.222Z,35.50
2019-02-16T20:55:58.434Z,35.50
2019-02-16T20:58:19.817Z,32.63
2019-02-16T21:00:39.926Z,36.30
2019-02-16T21:02:50.528Z,32.67
2019-02-16T21:05:00.885Z,32.83
2019-02-16T21:07:31.179Z,31.87
2019-02-16T21:09:43.612Z,33.43
2019-02-16T21:11:53.652Z,34.30
2019-02-16T21:14:00.965Z,35.70
2019-02-16T21:16:24.000Z,39.03
2019-02-16T21:18:39.160Z,31.03
2019-02-16T21:20:59.464Z,40.80
2019-02-16T21:23:30.002Z,36.23
2019-02-16T21:25:38.086Z,38.53
2019-02-16T21:27:57.683Z,34.90
2019-02-16T21:30:02.682Z,35.40
2019-02-16T21:32:24.168Z,35.03
2019-02-16T21:34:44.366Z,38.23
2019-02-16T21:36:53.706Z,36.23
2019-02-16T21:39:07.860Z,38.50
2019-02-16T21:41:31.041Z,36.47
2019-02-16T21:43:51.100Z,30.80
2019-02-16T21:46:12.489Z,31.50
2019-02-16T21:48:25.969Z,36.80
2019-02-16T21:50:40.081Z,32.13
2019-02-16T21:53:02.524Z,33.27
2019-02-16T21:55:30.213Z,32.20
2019-02-16T21:57:54.393Z,32.87
2019-02-16T22:00:15.767Z,35.20
2019-02-16T22:02:42.853Z,45.30
2019-02-16T22:05:10.010Z,33.33
2019-02-16T22:07:22.481Z,34.27
2019-02-16T22:09:45.269Z,35.63
2019-02-16T22:12:07.820Z,32.80
2019-02-16T22:14:09.529Z,35.20
2019-02-16T22:16:11.226Z,35.43
2019-02-16T22:18:12.961Z,33.50
2019-02-16T22:20:14.781Z,33.63
2019-02-16T22:22:16.540Z,27.87
2019-02-16T22:24:18.402Z,35.43
2019-02-16T22:26:20.101Z,33.93
2019-02-16T22:28:30.581Z,33.17
2019-02-16T22:30:25.551Z,31.37
2019-02-16T22:32:27.254Z,32.60
2019-02-16T22:34:29.173Z,34.90
2019-02-16T22:36:31.297Z,31.90
2019-02-16T22:38:33.012Z,32.30
2019-02-16T22:40:34.728Z,32.60
2019-02-16T22:42:36.756Z,35.37
2019-02-16T22:44:38.473Z,34.27
2019-02-16T22:46:40.172Z,32.20
2019-02-16T22:48:41.896Z,33.70
2019-02-16T22:50:43.621Z,36.20
2019-02-16T22:52:45.337Z,35.30
2019-02-16T22:54:47.055Z,36.17
2019-02-16T22:56:48.788Z,34.50
2019-02-16T22:58:50.518Z,36.70
2019-02-16T23:00:52.984Z,32.83
2019-02-16T23:02:54.733Z,28.53
2019-02-16T23:04:56.571Z,34.93
2019-02-16T23:06:58.377Z,40.53
2019-02-16T23:09:00.681Z,30.60
2019-02-16T23:11:02.485Z,33.83
2019-02-16T23:13:04.753Z,35.20
2019-02-16T23:15:08.226Z,33.77
2019-02-16T23:17:10.475Z,29.90
2019-02-16T23:19:12.199Z,34.87
2019-02-16T23:21:14.017Z,31.00
2019-02-16T23:23:15.935Z,31.57
2019-02-16T23:25:17.725Z,36.13
2019-02-16T23:27:19.428Z,37.30
2019-02-16T23:29:21.785Z,30.40
2019-02-16T23:31:23.518Z,36.83
2019-02-16T23:33:25.226Z,33.17
2019-02-16T23:35:26.928Z,32.27
2019-02-16T23:37:28.658Z,34.63
2019-02-16T23:39:30.361Z,40.77
2019-02-16T23:41:32.182Z,34.43
2019-02-16T23:43:33.896Z,34.13
2019-02-16T23:45:35.604Z,33.03
2019-02-16T23:47:37.525Z,34.90
2019-02-16T23:49:39.433Z,40.30
2019-02-16T23:51:41.147Z,33.87
2019-02-16T23:53:43.015Z,30.20
2019-02-16T23:55:44.745Z,33.87
2019-02-16T23:57:46.459Z,34.17
2019-02-16T23:59:48.176Z,31.67
